sensor_id;sensor_type;location;lat;lon;timestamp;P1;durP1;ratioP1;P2;durP2;ratioP2
38083;SDS011;23894;51.466;7.444;2022-12-07T00:03:49;52.50;;;37.53;;
38083;SDS011;23894;51.466;7.444;2022-12-07T00:05:51;52.50;;;38.50;;
38083;SDS011;23894;51.466;7.444;2022-12-07T00:07:52;52.63;;;40.35;;
38083;SDS011;23894;51.466;7.444;2022-12-07T00:09:53;53.70;;;40.38;;
38083;SDS011;23894;51.466;7.444;2022-12-07T00:11:54;53.03;;;39.80;;
38083;SDS011;23894;51.466;7.444;2022-12-07T00:13:56;47.08;;;36.10;;
38083;SDS011;23894;51.466;7.444;2022-12-07T00:16:05;55.40;;;39.35;;
38083;SDS011;23894;51.466;7.444;2022-12-07T00:18:06;48.28;;;37.00;;
38083;SDS011;23894;51.466;7.444;2022-12-07T00:22:08;50.42;;;37.05;;
38083;SDS011;23894;51.466;7.444;2022-12-07T00:24:12;48.78;;;37.13;;
38083;SDS011;23894;51.466;7.444;2022-12-07T00:26:17;53.38;;;37.75;;
38083;SDS011;23894;51.466;7.444;2022-12-07T00:28:18;51.85;;;39.60;;
38083;SDS011;23894;51.466;7.444;2022-12-07T00:30:19;52.85;;;38.50;;
38083;SDS011;23894;51.466;7.444;2022-12-07T00:32:20;50.85;;;38.00;;
38083;SDS011;23894;51.466;7.444;2022-12-07T00:34:22;49.45;;;37.45;;
38083;SDS011;23894;51.466;7.444;2022-12-07T00:38:24;49.25;;;35.47;;
38083;SDS011;23894;51.466;7.444;2022-12-07T00:40:25;50.45;;;36.70;;
38083;SDS011;23894;51.466;7.444;2022-12-07T00:42:26;49.90;;;36.90;;
38083;SDS011;23894;51.466;7.444;2022-12-07T00:44:27;49.50;;;37.65;;
38083;SDS011;23894;51.466;7.444;2022-12-07T00:46:28;49.17;;;36.03;;
38083;SDS011;23894;51.466;7.444;2022-12-07T00:48:29;51.28;;;38.35;;
38083;SDS011;23894;51.466;7.444;2022-12-07T00:50:30;47.75;;;37.10;;
38083;SDS011;23894;51.466;7.444;2022-12-07T00:52:31;50.25;;;37.95;;
38083;SDS011;23894;51.466;7.444;2022-12-07T00:54:32;46.80;;;36.00;;
38083;SDS011;23894;51.466;7.444;2022-12-07T00:56:34;52.72;;;39.47;;
38083;SDS011;23894;51.466;7.444;2022-12-07T00:58:35;52.60;;;38.05;;
38083;SDS011;23894;51.466;7.444;2022-12-07T01:02:37;49.42;;;36.22;;
38083;SDS011;23894;51.466;7.444;2022-12-07T01:04:38;51.70;;;37.17;;
38083;SDS011;23894;51.466;7.444;2022-12-07T01:06:39;50.35;;;37.85;;
38083;SDS011;23894;51.466;7.444;2022-12-07T01:08:40;54.05;;;38.00;;
38083;SDS011;23894;51.466;7.444;2022-12-07T01:10:41;51.28;;;37.05;;
38083;SDS011;23894;51.466;7.444;2022-12-07T01:14:43;42.95;;;32.28;;
38083;SDS011;23894;51.466;7.444;2022-12-07T01:16:44;47.83;;;34.53;;
38083;SDS011;23894;51.466;7.444;2022-12-07T01:18:45;43.88;;;34.20;;
38083;SDS011;23894;51.466;7.444;2022-12-07T01:20:56;41.67;;;35.03;;
38083;SDS011;23894;51.466;7.444;2022-12-07T01:22:57;43.60;;;33.28;;
38083;SDS011;23894;51.466;7.444;2022-12-07T01:24:58;49.83;;;33.92;;
38083;SDS011;23894;51.466;7.444;2022-12-07T01:26:59;41.63;;;33.38;;
38083;SDS011;23894;51.466;7.444;2022-12-07T01:29:00;41.97;;;33.20;;
38083;SDS011;23894;51.466;7.444;2022-12-07T01:31:03;46.05;;;35.38;;
38083;SDS011;23894;51.466;7.444;2022-12-07T01:33:04;38.63;;;30.92;;
38083;SDS011;23894;51.466;7.444;2022-12-07T01:35:05;43.20;;;33.00;;
38083;SDS011;23894;51.466;7.444;2022-12-07T01:39:09;41.80;;;32.95;;
38083;SDS011;23894;51.466;7.444;2022-12-07T01:41:10;45.28;;;32.88;;
38083;SDS011;23894;51.466;7.444;2022-12-07T01:43:18;42.40;;;33.35;;
38083;SDS011;23894;51.466;7.444;2022-12-07T01:47:35;44.22;;;34.15;;
38083;SDS011;23894;51.466;7.444;2022-12-07T01:49:41;40.30;;;32.05;;
38083;SDS011;23894;51.466;7.444;2022-12-07T01:51:43;42.58;;;32.90;;
38083;SDS011;23894;51.466;7.444;2022-12-07T01:53:45;39.10;;;31.15;;
38083;SDS011;23894;51.466;7.444;2022-12-07T01:55:47;45.80;;;34.60;;
38083;SDS011;23894;51.466;7.444;2022-12-07T01:57:50;47.00;;;35.83;;
38083;SDS011;23894;51.466;7.444;2022-12-07T01:59:52;44.63;;;33.08;;
38083;SDS011;23894;51.466;7.444;2022-12-07T02:01:54;40.90;;;33.58;;
38083;SDS011;23894;51.466;7.444;2022-12-07T02:03:56;47.75;;;34.58;;
38083;SDS011;23894;51.466;7.444;2022-12-07T02:05:58;46.00;;;35.20;;
38083;SDS011;23894;51.466;7.444;2022-12-07T02:07:59;46.78;;;35.45;;
38083;SDS011;23894;51.466;7.444;2022-12-07T02:10:14;47.30;;;35.25;;
38083;SDS011;23894;51.466;7.444;2022-12-07T02:12:15;46.78;;;35.60;;
38083;SDS011;23894;51.466;7.444;2022-12-07T02:14:16;37.72;;;31.77;;
38083;SDS011;23894;51.466;7.444;2022-12-07T02:20:44;49.60;;;36.63;;
38083;SDS011;23894;51.466;7.444;2022-12-07T02:27:47;43.97;;;33.63;;
38083;SDS011;23894;51.466;7.444;2022-12-07T02:29:57;46.25;;;34.53;;
38083;SDS011;23894;51.466;7.444;2022-12-07T02:32:13;45.22;;;35.28;;
38083;SDS011;23894;51.466;7.444;2022-12-07T02:34:29;48.67;;;34.83;;
38083;SDS011;23894;51.466;7.444;2022-12-07T02:36:32;45.85;;;35.33;;
38083;SDS011;23894;51.466;7.444;2022-12-07T02:38:39;46.00;;;33.53;;
38083;SDS011;23894;51.466;7.444;2022-12-07T02:43:06;49.65;;;34.47;;
38083;SDS011;23894;51.466;7.444;2022-12-07T02:45:08;41.03;;;33.88;;
38083;SDS011;23894;51.466;7.444;2022-12-07T02:47:12;45.35;;;34.20;;
38083;SDS011;23894;51.466;7.444;2022-12-07T02:49:14;44.50;;;32.97;;
38083;SDS011;23894;51.466;7.444;2022-12-07T02:51:17;40.60;;;32.50;;
38083;SDS011;23894;51.466;7.444;2022-12-07T02:53:31;42.92;;;32.97;;
38083;SDS011;23894;51.466;7.444;2022-12-07T02:55:34;41.45;;;30.83;;
38083;SDS011;23894;51.466;7.444;2022-12-07T02:57:43;42.25;;;32.90;;
38083;SDS011;23894;51.466;7.444;2022-12-07T02:59:59;40.70;;;31.40;;
38083;SDS011;23894;51.466;7.444;2022-12-07T03:02:47;39.63;;;32.15;;
38083;SDS011;23894;51.466;7.444;2022-12-07T03:06:41;42.90;;;31.35;;
38083;SDS011;23894;51.466;7.444;2022-12-07T03:09:06;44.88;;;31.38;;
38083;SDS011;23894;51.466;7.444;2022-12-07T03:11:19;40.40;;;31.88;;
38083;SDS011;23894;51.466;7.444;2022-12-07T03:15:27;40.53;;;31.95;;
38083;SDS011;23894;51.466;7.444;2022-12-07T03:17:31;45.88;;;33.25;;
38083;SDS011;23894;51.466;7.444;2022-12-07T03:19:33;38.45;;;31.20;;
38083;SDS011;23894;51.466;7.444;2022-12-07T03:21:39;40.25;;;32.42;;
38083;SDS011;23894;51.466;7.444;2022-12-07T03:23:41;39.45;;;31.35;;
38083;SDS011;23894;51.466;7.444;2022-12-07T03:25:49;47.70;;;33.55;;
38083;SDS011;23894;51.466;7.444;2022-12-07T03:29:54;45.63;;;33.17;;
38083;SDS011;23894;51.466;7.444;2022-12-07T03:32:00;40.30;;;31.90;;
38083;SDS011;23894;51.466;7.444;2022-12-07T03:36:24;41.75;;;30.92;;
38083;SDS011;23894;51.466;7.444;2022-12-07T03:40:50;41.70;;;31.00;;
38083;SDS011;23894;51.466;7.444;2022-12-07T03:42:53;38.53;;;30.17;;
38083;SDS011;23894;51.466;7.444;2022-12-07T03:44:55;40.83;;;29.17;;
38083;SDS011;23894;51.466;7.444;2022-12-07T03:49:06;41.67;;;28.73;;
38083;SDS011;23894;51.466;7.444;2022-12-07T03:53:14;41.05;;;30.60;;
38083;SDS011;23894;51.466;7.444;2022-12-07T03:55:24;38.92;;;29.73;;
38083;SDS011;23894;51.466;7.444;2022-12-07T03:57:27;41.83;;;29.77;;
38083;SDS011;23894;51.466;7.444;2022-12-07T03:59:29;40.97;;;29.60;;
38083;SDS011;23894;51.466;7.444;2022-12-07T04:01:31;40.40;;;28.55;;
38083;SDS011;23894;51.466;7.444;2022-12-07T04:03:32;40.63;;;29.67;;
38083;SDS011;23894;51.466;7.444;2022-12-07T04:05:33;37.72;;;29.23;;
38083;SDS011;23894;51.466;7.444;2022-12-07T04:07:34;34.50;;;27.35;;
38083;SDS011;23894;51.466;7.444;2022-12-07T04:09:35;36.47;;;28.02;;
38083;SDS011;23894;51.466;7.444;2022-12-07T04:11:36;35.15;;;26.17;;
38083;SDS011;23894;51.466;7.444;2022-12-07T04:13:37;38.08;;;28.23;;
38083;SDS011;23894;51.466;7.444;2022-12-07T04:15:56;40.47;;;28.48;;
38083;SDS011;23894;51.466;7.444;2022-12-07T04:17:57;37.08;;;26.05;;
38083;SDS011;23894;51.466;7.444;2022-12-07T04:19:59;34.85;;;26.15;;
38083;SDS011;23894;51.466;7.444;2022-12-07T04:24:01;32.30;;;24.75;;
38083;SDS011;23894;51.466;7.444;2022-12-07T04:26:02;34.65;;;25.67;;
38083;SDS011;23894;51.466;7.444;2022-12-07T04:28:03;33.45;;;24.85;;
38083;SDS011;23894;51.466;7.444;2022-12-07T04:30:04;36.25;;;25.73;;
38083;SDS011;23894;51.466;7.444;2022-12-07T04:32:05;36.55;;;26.38;;
38083;SDS011;23894;51.466;7.444;2022-12-07T04:34:06;32.80;;;24.17;;
38083;SDS011;23894;51.466;7.444;2022-12-07T04:36:08;35.28;;;24.92;;
38083;SDS011;23894;51.466;7.444;2022-12-07T04:38:09;34.75;;;26.77;;
38083;SDS011;23894;51.466;7.444;2022-12-07T04:40:10;33.10;;;24.45;;
38083;SDS011;23894;51.466;7.444;2022-12-07T04:42:12;34.80;;;24.08;;
38083;SDS011;23894;51.466;7.444;2022-12-07T04:44:14;34.38;;;23.77;;
38083;SDS011;23894;51.466;7.444;2022-12-07T04:46:15;36.80;;;25.45;;
38083;SDS011;23894;51.466;7.444;2022-12-07T04:48:16;32.75;;;24.65;;
38083;SDS011;23894;51.466;7.444;2022-12-07T04:50:17;33.50;;;25.00;;
38083;SDS011;23894;51.466;7.444;2022-12-07T04:54:19;32.92;;;22.35;;
38083;SDS011;23894;51.466;7.444;2022-12-07T04:58:21;36.83;;;23.00;;
38083;SDS011;23894;51.466;7.444;2022-12-07T05:00:22;36.47;;;24.40;;
38083;SDS011;23894;51.466;7.444;2022-12-07T05:02:23;36.47;;;24.25;;
38083;SDS011;23894;51.466;7.444;2022-12-07T05:04:24;34.45;;;23.95;;
38083;SDS011;23894;51.466;7.444;2022-12-07T05:06:25;34.33;;;23.85;;
38083;SDS011;23894;51.466;7.444;2022-12-07T05:08:26;35.47;;;23.27;;
38083;SDS011;23894;51.466;7.444;2022-12-07T05:10:27;36.17;;;25.52;;
38083;SDS011;23894;51.466;7.444;2022-12-07T05:12:28;33.53;;;24.42;;
38083;SDS011;23894;51.466;7.444;2022-12-07T05:14:29;35.67;;;24.65;;
38083;SDS011;23894;51.466;7.444;2022-12-07T05:16:30;38.65;;;23.52;;
38083;SDS011;23894;51.466;7.444;2022-12-07T05:18:31;34.00;;;24.10;;
38083;SDS011;23894;51.466;7.444;2022-12-07T05:20:32;28.95;;;22.02;;
38083;SDS011;23894;51.466;7.444;2022-12-07T05:22:33;31.92;;;23.75;;
38083;SDS011;23894;51.466;7.444;2022-12-07T05:26:35;30.30;;;21.55;;
38083;SDS011;23894;51.466;7.444;2022-12-07T05:28:36;36.67;;;22.42;;
38083;SDS011;23894;51.466;7.444;2022-12-07T05:30:37;33.13;;;22.05;;
38083;SDS011;23894;51.466;7.444;2022-12-07T05:32:38;30.38;;;22.67;;
38083;SDS011;23894;51.466;7.444;2022-12-07T05:34:39;36.58;;;24.77;;
38083;SDS011;23894;51.466;7.444;2022-12-07T05:36:40;34.55;;;23.40;;
38083;SDS011;23894;51.466;7.444;2022-12-07T05:38:41;36.20;;;23.95;;
38083;SDS011;23894;51.466;7.444;2022-12-07T05:40:42;34.70;;;22.98;;
38083;SDS011;23894;51.466;7.444;2022-12-07T05:42:44;33.83;;;23.30;;
38083;SDS011;23894;51.466;7.444;2022-12-07T05:46:46;35.70;;;24.45;;
38083;SDS011;23894;51.466;7.444;2022-12-07T05:48:47;32.03;;;24.80;;
38083;SDS011;23894;51.466;7.444;2022-12-07T05:50:48;33.67;;;23.67;;
38083;SDS011;23894;51.466;7.444;2022-12-07T05:52:49;33.65;;;23.63;;
38083;SDS011;23894;51.466;7.444;2022-12-07T05:54:50;34.25;;;22.67;;
38083;SDS011;23894;51.466;7.444;2022-12-07T05:56:51;33.60;;;23.55;;
38083;SDS011;23894;51.466;7.444;2022-12-07T05:58:52;32.60;;;23.30;;
38083;SDS011;23894;51.466;7.444;2022-12-07T06:01:12;34.60;;;23.95;;
38083;SDS011;23894;51.466;7.444;2022-12-07T06:03:13;40.22;;;24.55;;
38083;SDS011;23894;51.466;7.444;2022-12-07T06:05:14;38.50;;;25.02;;
38083;SDS011;23894;51.466;7.444;2022-12-07T06:07:15;35.75;;;23.52;;
38083;SDS011;23894;51.466;7.444;2022-12-07T06:11:18;38.88;;;24.58;;
38083;SDS011;23894;51.466;7.444;2022-12-07T06:13:37;35.80;;;24.27;;
38083;SDS011;23894;51.466;7.444;2022-12-07T06:15:38;33.85;;;23.92;;
38083;SDS011;23894;51.466;7.444;2022-12-07T06:17:41;34.35;;;24.77;;
38083;SDS011;23894;51.466;7.444;2022-12-07T06:19:42;34.33;;;22.77;;
38083;SDS011;23894;51.466;7.444;2022-12-07T06:21:43;38.45;;;25.30;;
38083;SDS011;23894;51.466;7.444;2022-12-07T06:23:44;36.78;;;24.40;;
38083;SDS011;23894;51.466;7.444;2022-12-07T06:25:45;35.25;;;24.38;;
38083;SDS011;23894;51.466;7.444;2022-12-07T06:27:46;42.60;;;24.35;;
38083;SDS011;23894;51.466;7.444;2022-12-07T06:29:47;34.42;;;24.52;;
38083;SDS011;23894;51.466;7.444;2022-12-07T06:31:48;34.40;;;22.92;;
38083;SDS011;23894;51.466;7.444;2022-12-07T06:33:49;39.50;;;24.27;;
38083;SDS011;23894;51.466;7.444;2022-12-07T06:37:52;34.83;;;23.13;;
38083;SDS011;23894;51.466;7.444;2022-12-07T06:39:53;32.60;;;23.88;;
38083;SDS011;23894;51.466;7.444;2022-12-07T06:41:54;34.42;;;22.52;;
38083;SDS011;23894;51.466;7.444;2022-12-07T06:43:55;36.13;;;24.35;;
38083;SDS011;23894;51.466;7.444;2022-12-07T06:45:56;33.80;;;23.40;;
38083;SDS011;23894;51.466;7.444;2022-12-07T06:47:57;38.70;;;24.52;;
38083;SDS011;23894;51.466;7.444;2022-12-07T06:49:58;32.38;;;23.20;;
38083;SDS011;23894;51.466;7.444;2022-12-07T06:51:59;36.65;;;24.33;;
38083;SDS011;23894;51.466;7.444;2022-12-07T06:54:00;35.35;;;24.48;;
38083;SDS011;23894;51.466;7.444;2022-12-07T06:56:01;36.55;;;23.98;;
38083;SDS011;23894;51.466;7.444;2022-12-07T06:58:02;34.90;;;23.92;;
38083;SDS011;23894;51.466;7.444;2022-12-07T07:00:04;34.38;;;23.63;;
38083;SDS011;23894;51.466;7.444;2022-12-07T07:02:05;37.53;;;25.60;;
38083;SDS011;23894;51.466;7.444;2022-12-07T07:04:06;35.80;;;24.77;;
38083;SDS011;23894;51.466;7.444;2022-12-07T07:06:07;36.67;;;25.88;;
38083;SDS011;23894;51.466;7.444;2022-12-07T07:08:08;36.20;;;24.05;;
38083;SDS011;23894;51.466;7.444;2022-12-07T07:12:10;35.38;;;22.98;;
38083;SDS011;23894;51.466;7.444;2022-12-07T07:14:11;30.95;;;22.92;;
38083;SDS011;23894;51.466;7.444;2022-12-07T07:16:13;35.42;;;22.67;;
38083;SDS011;23894;51.466;7.444;2022-12-07T07:18:14;38.88;;;24.08;;
38083;SDS011;23894;51.466;7.444;2022-12-07T07:20:15;32.53;;;23.42;;
38083;SDS011;23894;51.466;7.444;2022-12-07T07:22:16;35.10;;;22.25;;
38083;SDS011;23894;51.466;7.444;2022-12-07T07:24:17;33.67;;;22.45;;
38083;SDS011;23894;51.466;7.444;2022-12-07T07:26:18;32.72;;;21.73;;
38083;SDS011;23894;51.466;7.444;2022-12-07T07:28:19;30.70;;;22.15;;
38083;SDS011;23894;51.466;7.444;2022-12-07T07:30:20;30.95;;;21.73;;
38083;SDS011;23894;51.466;7.444;2022-12-07T07:32:21;30.02;;;19.30;;
38083;SDS011;23894;51.466;7.444;2022-12-07T07:34:22;32.72;;;21.23;;
38083;SDS011;23894;51.466;7.444;2022-12-07T07:36:23;29.73;;;21.00;;
38083;SDS011;23894;51.466;7.444;2022-12-07T07:38:24;28.90;;;19.70;;
38083;SDS011;23894;51.466;7.444;2022-12-07T07:40:26;31.60;;;20.85;;
38083;SDS011;23894;51.466;7.444;2022-12-07T07:42:28;31.13;;;20.40;;
38083;SDS011;23894;51.466;7.444;2022-12-07T07:44:29;30.00;;;21.23;;
38083;SDS011;23894;51.466;7.444;2022-12-07T07:48:33;30.88;;;19.67;;
38083;SDS011;23894;51.466;7.444;2022-12-07T07:50:34;28.67;;;21.67;;
38083;SDS011;23894;51.466;7.444;2022-12-07T07:52:35;34.83;;;22.15;;
38083;SDS011;23894;51.466;7.444;2022-12-07T07:56:37;30.55;;;20.75;;
38083;SDS011;23894;51.466;7.444;2022-12-07T07:58:38;32.83;;;21.15;;
38083;SDS011;23894;51.466;7.444;2022-12-07T08:00:39;39.92;;;21.52;;
38083;SDS011;23894;51.466;7.444;2022-12-07T08:02:40;30.08;;;20.52;;
38083;SDS011;23894;51.466;7.444;2022-12-07T08:04:43;33.40;;;21.38;;
38083;SDS011;23894;51.466;7.444;2022-12-07T08:06:44;33.17;;;20.92;;
38083;SDS011;23894;51.466;7.444;2022-12-07T08:08:45;31.65;;;21.40;;
38083;SDS011;23894;51.466;7.444;2022-12-07T08:12:47;33.05;;;20.33;;
38083;SDS011;23894;51.466;7.444;2022-12-07T08:15:07;30.85;;;20.65;;
38083;SDS011;23894;51.466;7.444;2022-12-07T08:19:09;32.55;;;20.67;;
38083;SDS011;23894;51.466;7.444;2022-12-07T08:21:11;34.45;;;21.73;;
38083;SDS011;23894;51.466;7.444;2022-12-07T08:23:12;33.08;;;21.50;;
38083;SDS011;23894;51.466;7.444;2022-12-07T08:25:13;27.58;;;19.83;;
38083;SDS011;23894;51.466;7.444;2022-12-07T08:27:14;33.50;;;20.33;;
38083;SDS011;23894;51.466;7.444;2022-12-07T08:29:15;30.52;;;21.13;;
38083;SDS011;23894;51.466;7.444;2022-12-07T08:31:17;29.65;;;20.60;;
38083;SDS011;23894;51.466;7.444;2022-12-07T08:33:18;29.40;;;20.02;;
38083;SDS011;23894;51.466;7.444;2022-12-07T08:35:22;30.27;;;19.50;;
38083;SDS011;23894;51.466;7.444;2022-12-07T08:39:24;32.22;;;20.27;;
38083;SDS011;23894;51.466;7.444;2022-12-07T08:41:25;28.10;;;20.25;;
38083;SDS011;23894;51.466;7.444;2022-12-07T08:43:26;26.60;;;18.50;;
38083;SDS011;23894;51.466;7.444;2022-12-07T08:47:32;29.05;;;18.17;;
38083;SDS011;23894;51.466;7.444;2022-12-07T08:49:40;27.70;;;17.27;;
38083;SDS011;23894;51.466;7.444;2022-12-07T08:51:42;25.95;;;17.75;;
38083;SDS011;23894;51.466;7.444;2022-12-07T08:55:45;26.17;;;16.98;;
38083;SDS011;23894;51.466;7.444;2022-12-07T08:57:47;23.05;;;16.75;;
38083;SDS011;23894;51.466;7.444;2022-12-07T09:01:49;27.17;;;15.50;;
38083;SDS011;23894;51.466;7.444;2022-12-07T09:03:50;22.50;;;15.38;;
38083;SDS011;23894;51.466;7.444;2022-12-07T09:05:52;24.55;;;16.95;;
38083;SDS011;23894;51.466;7.444;2022-12-07T09:07:54;24.58;;;16.02;;
38083;SDS011;23894;51.466;7.444;2022-12-07T09:09:56;24.30;;;16.40;;
38083;SDS011;23894;51.466;7.444;2022-12-07T09:11:57;25.70;;;16.30;;
38083;SDS011;23894;51.466;7.444;2022-12-07T09:13:58;27.27;;;15.02;;
38083;SDS011;23894;51.466;7.444;2022-12-07T09:15:59;26.63;;;16.45;;
38083;SDS011;23894;51.466;7.444;2022-12-07T09:18:00;20.63;;;14.57;;
38083;SDS011;23894;51.466;7.444;2022-12-07T09:20:02;26.27;;;15.50;;
38083;SDS011;23894;51.466;7.444;2022-12-07T09:22:03;28.27;;;16.15;;
38083;SDS011;23894;51.466;7.444;2022-12-07T09:24:05;27.05;;;15.15;;
38083;SDS011;23894;51.466;7.444;2022-12-07T09:28:07;23.95;;;15.32;;
38083;SDS011;23894;51.466;7.444;2022-12-07T09:30:08;26.75;;;15.65;;
38083;SDS011;23894;51.466;7.444;2022-12-07T09:32:09;24.70;;;15.85;;
38083;SDS011;23894;51.466;7.444;2022-12-07T09:34:10;24.08;;;15.93;;
38083;SDS011;23894;51.466;7.444;2022-12-07T09:36:11;24.58;;;16.52;;
38083;SDS011;23894;51.466;7.444;2022-12-07T09:38:12;26.30;;;14.95;;
38083;SDS011;23894;51.466;7.444;2022-12-07T09:40:14;24.55;;;15.65;;
38083;SDS011;23894;51.466;7.444;2022-12-07T09:44:26;24.90;;;16.55;;
38083;SDS011;23894;51.466;7.444;2022-12-07T09:46:28;24.23;;;16.42;;
38083;SDS011;23894;51.466;7.444;2022-12-07T09:48:32;26.23;;;16.63;;
38083;SDS011;23894;51.466;7.444;2022-12-07T09:50:33;23.20;;;16.20;;
38083;SDS011;23894;51.466;7.444;2022-12-07T09:52:34;24.27;;;16.40;;
38083;SDS011;23894;51.466;7.444;2022-12-07T09:54:36;24.23;;;15.98;;
38083;SDS011;23894;51.466;7.444;2022-12-07T09:56:39;26.23;;;16.88;;
38083;SDS011;23894;51.466;7.444;2022-12-07T10:00:41;25.63;;;15.40;;
38083;SDS011;23894;51.466;7.444;2022-12-07T10:04:52;27.15;;;17.23;;
38083;SDS011;23894;51.466;7.444;2022-12-07T10:08:54;31.38;;;17.05;;
38083;SDS011;23894;51.466;7.444;2022-12-07T10:10:56;27.15;;;18.58;;
38083;SDS011;23894;51.466;7.444;2022-12-07T10:13:01;24.13;;;18.73;;
38083;SDS011;23894;51.466;7.444;2022-12-07T10:15:03;36.10;;;20.63;;
38083;SDS011;23894;51.466;7.444;2022-12-07T10:19:28;29.00;;;20.60;;
38083;SDS011;23894;51.466;7.444;2022-12-07T10:21:29;33.38;;;23.27;;
38083;SDS011;23894;51.466;7.444;2022-12-07T10:23:30;34.70;;;23.35;;
38083;SDS011;23894;51.466;7.444;2022-12-07T10:25:32;36.90;;;23.20;;
38083;SDS011;23894;51.466;7.444;2022-12-07T10:27:34;32.53;;;24.55;;
38083;SDS011;23894;51.466;7.444;2022-12-07T10:29:38;35.28;;;24.38;;
38083;SDS011;23894;51.466;7.444;2022-12-07T10:31:39;34.60;;;24.67;;
38083;SDS011;23894;51.466;7.444;2022-12-07T10:35:44;35.70;;;24.08;;
38083;SDS011;23894;51.466;7.444;2022-12-07T10:37:45;33.65;;;24.90;;
38083;SDS011;23894;51.466;7.444;2022-12-07T10:39:48;35.22;;;25.05;;
38083;SDS011;23894;51.466;7.444;2022-12-07T10:41:52;33.88;;;24.10;;
38083;SDS011;23894;51.466;7.444;2022-12-07T10:43:55;29.00;;;21.50;;
38083;SDS011;23894;51.466;7.444;2022-12-07T10:46:04;31.60;;;22.10;;
38083;SDS011;23894;51.466;7.444;2022-12-07T10:52:37;31.30;;;21.90;;
38083;SDS011;23894;51.466;7.444;2022-12-07T11:12:05;20.20;;;13.68;;
38083;SDS011;23894;51.466;7.444;2022-12-07T11:14:19;20.58;;;12.55;;
38083;SDS011;23894;51.466;7.444;2022-12-07T11:16:30;22.67;;;13.20;;
38083;SDS011;23894;51.466;7.444;2022-12-07T11:27:34;24.25;;;13.30;;
38083;SDS011;23894;51.466;7.444;2022-12-07T11:34:12;21.35;;;12.27;;
38083;SDS011;23894;51.466;7.444;2022-12-07T11:38:28;21.02;;;12.23;;
38083;SDS011;23894;51.466;7.444;2022-12-07T11:40:35;20.55;;;12.23;;
38083;SDS011;23894;51.466;7.444;2022-12-07T11:42:38;21.45;;;11.75;;
38083;SDS011;23894;51.466;7.444;2022-12-07T11:44:48;21.17;;;12.18;;
38083;SDS011;23894;51.466;7.444;2022-12-07T11:46:57;18.67;;;11.40;;
38083;SDS011;23894;51.466;7.444;2022-12-07T11:51:19;16.85;;;11.10;;
38083;SDS011;23894;51.466;7.444;2022-12-07T11:53:23;19.85;;;11.23;;
38083;SDS011;23894;51.466;7.444;2022-12-07T11:55:29;20.77;;;11.80;;
38083;SDS011;23894;51.466;7.444;2022-12-07T11:57:41;16.85;;;11.20;;
38083;SDS011;23894;51.466;7.444;2022-12-07T11:59:45;17.90;;;11.00;;
38083;SDS011;23894;51.466;7.444;2022-12-07T12:01:53;17.02;;;11.00;;
38083;SDS011;23894;51.466;7.444;2022-12-07T12:04:42;19.15;;;10.98;;
38083;SDS011;23894;51.466;7.444;2022-12-07T12:06:17;17.17;;;11.65;;
38083;SDS011;23894;51.466;7.444;2022-12-07T12:08:20;21.63;;;10.68;;
38083;SDS011;23894;51.466;7.444;2022-12-07T12:10:25;16.70;;;9.55;;
38083;SDS011;23894;51.466;7.444;2022-12-07T12:21:31;16.80;;;8.52;;
38083;SDS011;23894;51.466;7.444;2022-12-07T12:23:36;14.00;;;7.68;;
38083;SDS011;23894;51.466;7.444;2022-12-07T12:25:45;15.13;;;7.22;;
38083;SDS011;23894;51.466;7.444;2022-12-07T12:27:47;12.45;;;6.38;;
38083;SDS011;23894;51.466;7.444;2022-12-07T12:29:52;12.45;;;6.15;;
38083;SDS011;23894;51.466;7.444;2022-12-07T12:34:30;10.02;;;5.30;;
38083;SDS011;23894;51.466;7.444;2022-12-07T12:40:55;13.93;;;6.10;;
38083;SDS011;23894;51.466;7.444;2022-12-07T12:42:56;13.20;;;5.43;;
38083;SDS011;23894;51.466;7.444;2022-12-07T12:49:38;13.30;;;5.78;;
38083;SDS011;23894;51.466;7.444;2022-12-07T12:51:43;9.55;;;4.95;;
38083;SDS011;23894;51.466;7.444;2022-12-07T12:53:50;12.35;;;5.40;;
38083;SDS011;23894;51.466;7.444;2022-12-07T12:58:21;11.63;;;5.57;;
38083;SDS011;23894;51.466;7.444;2022-12-07T13:00:18;9.20;;;4.88;;
38083;SDS011;23894;51.466;7.444;2022-12-07T13:02:26;12.23;;;4.82;;
38083;SDS011;23894;51.466;7.444;2022-12-07T13:04:37;11.32;;;5.00;;
38083;SDS011;23894;51.466;7.444;2022-12-07T13:06:39;10.38;;;4.90;;
38083;SDS011;23894;51.466;7.444;2022-12-07T13:08:42;10.32;;;4.32;;
38083;SDS011;23894;51.466;7.444;2022-12-07T13:10:44;10.65;;;3.90;;
38083;SDS011;23894;51.466;7.444;2022-12-07T13:12:55;9.10;;;3.75;;
38083;SDS011;23894;51.466;7.444;2022-12-07T13:14:59;17.67;;;4.50;;
38083;SDS011;23894;51.466;7.444;2022-12-07T13:17:00;8.13;;;3.85;;
38083;SDS011;23894;51.466;7.444;2022-12-07T13:19:01;12.32;;;4.00;;
38083;SDS011;23894;51.466;7.444;2022-12-07T13:23:09;11.07;;;3.80;;
38083;SDS011;23894;51.466;7.444;2022-12-07T13:25:12;9.50;;;3.83;;
38083;SDS011;23894;51.466;7.444;2022-12-07T13:27:19;9.30;;;4.15;;
38083;SDS011;23894;51.466;7.444;2022-12-07T13:29:21;14.57;;;4.28;;
38083;SDS011;23894;51.466;7.444;2022-12-07T13:31:33;12.55;;;5.15;;
38083;SDS011;23894;51.466;7.444;2022-12-07T13:33:35;10.23;;;4.28;;
38083;SDS011;23894;51.466;7.444;2022-12-07T13:35:37;13.38;;;4.80;;
38083;SDS011;23894;51.466;7.444;2022-12-07T13:37:38;12.68;;;4.53;;
38083;SDS011;23894;51.466;7.444;2022-12-07T13:39:46;12.73;;;5.20;;
38083;SDS011;23894;51.466;7.444;2022-12-07T13:42:31;15.95;;;4.70;;
38083;SDS011;23894;51.466;7.444;2022-12-07T13:44:13;11.55;;;4.53;;
38083;SDS011;23894;51.466;7.444;2022-12-07T13:46:14;12.82;;;4.60;;
38083;SDS011;23894;51.466;7.444;2022-12-07T13:48:31;14.90;;;4.32;;
38083;SDS011;23894;51.466;7.444;2022-12-07T13:50:33;11.43;;;4.40;;
38083;SDS011;23894;51.466;7.444;2022-12-07T13:52:34;13.15;;;4.45;;
38083;SDS011;23894;51.466;7.444;2022-12-07T13:54:47;13.38;;;4.20;;
38083;SDS011;23894;51.466;7.444;2022-12-07T13:56:50;12.93;;;4.43;;
38083;SDS011;23894;51.466;7.444;2022-12-07T13:58:51;11.50;;;6.07;;
38083;SDS011;23894;51.466;7.444;2022-12-07T14:03:02;13.80;;;7.78;;
38083;SDS011;23894;51.466;7.444;2022-12-07T14:05:07;15.55;;;8.50;;
38083;SDS011;23894;51.466;7.444;2022-12-07T14:07:25;14.15;;;8.38;;
38083;SDS011;23894;51.466;7.444;2022-12-07T14:09:28;15.70;;;8.55;;
38083;SDS011;23894;51.466;7.444;2022-12-07T14:11:29;16.77;;;8.52;;
38083;SDS011;23894;51.466;7.444;2022-12-07T14:13:37;16.13;;;8.75;;
38083;SDS011;23894;51.466;7.444;2022-12-07T14:15:39;13.68;;;8.80;;
38083;SDS011;23894;51.466;7.444;2022-12-07T14:17:49;16.23;;;8.77;;
38083;SDS011;23894;51.466;7.444;2022-12-07T14:19:52;14.02;;;9.40;;
38083;SDS011;23894;51.466;7.444;2022-12-07T14:22:07;14.18;;;9.38;;
38083;SDS011;23894;51.466;7.444;2022-12-07T14:26:14;16.63;;;9.82;;
38083;SDS011;23894;51.466;7.444;2022-12-07T14:28:29;17.75;;;8.32;;
38083;SDS011;23894;51.466;7.444;2022-12-07T14:30:32;12.35;;;5.28;;
38083;SDS011;23894;51.466;7.444;2022-12-07T14:32:35;9.48;;;3.85;;
38083;SDS011;23894;51.466;7.444;2022-12-07T14:34:37;7.57;;;3.42;;
38083;SDS011;23894;51.466;7.444;2022-12-07T14:36:39;6.68;;;3.50;;
38083;SDS011;23894;51.466;7.444;2022-12-07T14:38:42;7.57;;;3.40;;
38083;SDS011;23894;51.466;7.444;2022-12-07T14:40:44;6.15;;;2.92;;